sensor_id;sensor_type;location;lat;lon;timestamp;temperature;humidity
46634;DHT22;32362;49.986;8.026;2023-05-10T00:22:27;12.90;99.90
46634;DHT22;32362;49.986;8.026;2023-05-10T00:49:08;12.90;99.90
46634;DHT22;32362;49.986;8.026;2023-05-10T01:15:49;12.80;99.90
46634;DHT22;32362;49.986;8.026;2023-05-10T01:42:46;12.70;99.90
46634;DHT22;32362;49.986;8.026;2023-05-10T02:09:28;12.80;99.90
46634;DHT22;32362;49.986;8.026;2023-05-10T02:36:10;12.80;99.90
46634;DHT22;32362;49.986;8.026;2023-05-10T03:02:53;12.90;99.90
46634;DHT22;32362;49.986;8.026;2023-05-10T03:29:34;13.00;99.90
46634;DHT22;32362;49.986;8.026;2023-05-10T03:56:16;13.00;99.90
46634;DHT22;32362;49.986;8.026;2023-05-10T04:22:57;13.00;99.90
46634;DHT22;32362;49.986;8.026;2023-05-10T04:49:37;13.10;99.90
46634;DHT22;32362;49.986;8.026;2023-05-10T05:16:18;13.00;99.90
46634;DHT22;32362;49.986;8.026;2023-05-10T05:42:58;13.40;99.90
46634;DHT22;32362;49.986;8.026;2023-05-10T06:09:39;14.10;99.90
46634;DHT22;32362;49.986;8.026;2023-05-10T06:36:20;15.10;99.90
46634;DHT22;32362;49.986;8.026;2023-05-10T07:03:00;15.20;98.80
46634;DHT22;32362;49.986;8.026;2023-05-10T07:29:41;16.20;95.30
46634;DHT22;32362;49.986;8.026;2023-05-10T07:56:25;17.20;91.50
46634;DHT22;32362;49.986;8.026;2023-05-10T08:23:07;17.50;91.30
46634;DHT22;32362;49.986;8.026;2023-05-10T08:49:48;18.50;83.90
46634;DHT22;32362;49.986;8.026;2023-05-10T09:16:31;18.10;88.30
46634;DHT22;32362;49.986;8.026;2023-05-10T09:43:13;15.30;99.90
46634;DHT22;32362;49.986;8.026;2023-05-10T10:09:54;17.60;99.90
46634;DHT22;32362;49.986;8.026;2023-05-10T10:36:44;18.30;99.90
46634;DHT22;32362;49.986;8.026;2023-05-10T11:03:26;23.00;79.40
46634;DHT22;32362;49.986;8.026;2023-05-10T11:30:11;22.00;65.30
46634;DHT22;32362;49.986;8.026;2023-05-10T11:56:52;24.40;58.30
46634;DHT22;32362;49.986;8.026;2023-05-10T12:23:32;19.50;72.00
46634;DHT22;32362;49.986;8.026;2023-05-10T12:50:13;21.00;68.40
46634;DHT22;32362;49.986;8.026;2023-05-10T13:16:54;20.90;65.90
46634;DHT22;32362;49.986;8.026;2023-05-10T13:43:34;24.60;56.00
46634;DHT22;32362;49.986;8.026;2023-05-10T14:10:16;24.80;55.40
46634;DHT22;32362;49.986;8.026;2023-05-10T14:36:57;25.80;53.50
46634;DHT22;32362;49.986;8.026;2023-05-10T15:03:38;28.40;48.30
46634;DHT22;32362;49.986;8.026;2023-05-10T15:30:18;25.30;49.50
46634;DHT22;32362;49.986;8.026;2023-05-10T15:56:59;22.10;56.40
46634;DHT22;32362;49.986;8.026;2023-05-10T16:23:40;21.70;56.30
46634;DHT22;32362;49.986;8.026;2023-05-10T16:50:21;23.10;52.70
46634;DHT22;32362;49.986;8.026;2023-05-10T17:17:01;22.90;53.30
46634;DHT22;32362;49.986;8.026;2023-05-10T17:43:42;21.60;57.10
46634;DHT22;32362;49.986;8.026;2023-05-10T18:10:23;20.10;55.80
46634;DHT22;32362;49.986;8.026;2023-05-10T18:37:04;19.20;61.40
46634;DHT22;32362;49.986;8.026;2023-05-10T19:03:46;23.60;52.80
46634;DHT22;32362;49.986;8.026;2023-05-10T19:30:27;16.70;72.10
46634;DHT22;32362;49.986;8.026;2023-05-10T19:57:08;14.90;78.40
46634;DHT22;32362;49.986;8.026;2023-05-10T20:23:48;13.90;79.40
46634;DHT22;32362;49.986;8.026;2023-05-10T20:50:29;13.10;82.00
46634;DHT22;32362;49.986;8.026;2023-05-10T21:17:10;13.00;82.20
46634;DHT22;32362;49.986;8.026;2023-05-10T21:43:50;12.80;84.60
46634;DHT22;32362;49.986;8.026;2023-05-10T22:10:31;12.70;84.70
46634;DHT22;32362;49.986;8.026;2023-05-10T22:37:12;12.30;87.60
46634;DHT22;32362;49.986;8.026;2023-05-10T23:03:57;11.70;90.50
46634;DHT22;32362;49.986;8.026;2023-05-10T23:30:37;11.00;93.10
46634;DHT22;32362;49.986;8.026;2023-05-10T23:57:18;10.70;93.40
